sensor_id;sensor_type;location;lat;lon;timestamp;temperature;humidity
65462;DHT22;53236;43.666;18.444;2022-12-18T00:01:02;2.40;99.90
65462;DHT22;53236;43.666;18.444;2022-12-18T00:03:35;2.20;99.90
65462;DHT22;53236;43.666;18.444;2022-12-18T00:06:01;2.20;99.90
65462;DHT22;53236;43.666;18.444;2022-12-18T00:08:28;2.40;99.90
65462;DHT22;53236;43.666;18.444;2022-12-18T00:10:54;2.30;99.90
65462;DHT22;53236;43.666;18.444;2022-12-18T00:13:20;2.30;99.90
65462;DHT22;53236;43.666;18.444;2022-12-18T00:15:45;2.20;99.90
65462;DHT22;53236;43.666;18.444;2022-12-18T00:18:11;2.40;99.90
65462;DHT22;53236;43.666;18.444;2022-12-18T00:20:38;2.30;99.90
65462;DHT22;53236;43.666;18.444;2022-12-18T00:23:05;2.30;99.90
65462;DHT22;53236;43.666;18.444;2022-12-18T00:25:35;2.40;99.90
65462;DHT22;53236;43.666;18.444;2022-12-18T00:28:02;2.40;99.90
65462;DHT22;53236;43.666;18.444;2022-12-18T00:30:28;2.30;99.90
65462;DHT22;53236;43.666;18.444;2022-12-18T00:32:53;2.10;99.90
65462;DHT22;53236;43.666;18.444;2022-12-18T00:35:19;2.10;99.90
65462;DHT22;53236;43.666;18.444;2022-12-18T00:37:45;2.10;99.90
65462;DHT22;53236;43.666;18.444;2022-12-18T00:40:11;2.20;99.90
65462;DHT22;53236;43.666;18.444;2022-12-18T00:42:37;2.10;99.90
65462;DHT22;53236;43.666;18.444;2022-12-18T00:45:21;2.10;99.90
65462;DHT22;53236;43.666;18.444;2022-12-18T00:47:47;2.00;99.90
65462;DHT22;53236;43.666;18.444;2022-12-18T00:50:12;1.90;99.90
65462;DHT22;53236;43.666;18.444;2022-12-18T01:12:06;1.60;99.90
65462;DHT22;53236;43.666;18.444;2022-12-18T01:14:32;1.70;99.90
65462;DHT22;53236;43.666;18.444;2022-12-18T01:16:58;1.80;99.90
65462;DHT22;53236;43.666;18.444;2022-12-18T01:19:24;1.80;99.90
65462;DHT22;53236;43.666;18.444;2022-12-18T01:21:49;1.60;99.90
65462;DHT22;53236;43.666;18.444;2022-12-18T01:24:15;1.60;99.90
65462;DHT22;53236;43.666;18.444;2022-12-18T01:26:41;1.60;99.90
65462;DHT22;53236;43.666;18.444;2022-12-18T01:29:06;1.60;99.90
65462;DHT22;53236;43.666;18.444;2022-12-18T01:31:33;1.50;99.90
65462;DHT22;53236;43.666;18.444;2022-12-18T01:34:04;1.50;99.90
65462;DHT22;53236;43.666;18.444;2022-12-18T01:36:34;1.60;99.90
65462;DHT22;53236;43.666;18.444;2022-12-18T01:39:04;1.70;99.90
65462;DHT22;53236;43.666;18.444;2022-12-18T01:41:31;1.60;99.90
65462;DHT22;53236;43.666;18.444;2022-12-18T01:49:59;1.70;99.90
65462;DHT22;53236;43.666;18.444;2022-12-18T01:52:28;1.60;99.90
65462;DHT22;53236;43.666;18.444;2022-12-18T01:54:56;1.60;99.90
65462;DHT22;53236;43.666;18.444;2022-12-18T01:57:23;1.60;99.90
65462;DHT22;53236;43.666;18.444;2022-12-18T01:59:52;1.60;99.90
65462;DHT22;53236;43.666;18.444;2022-12-18T02:02:19;1.70;99.90
65462;DHT22;53236;43.666;18.444;2022-12-18T02:04:46;1.70;99.90
65462;DHT22;53236;43.666;18.444;2022-12-18T02:12:53;1.50;99.90
65462;DHT22;53236;43.666;18.444;2022-12-18T02:15:27;1.50;99.90
65462;DHT22;53236;43.666;18.444;2022-12-18T02:18:02;1.50;99.90
65462;DHT22;53236;43.666;18.444;2022-12-18T02:20:36;1.50;99.90
65462;DHT22;53236;43.666;18.444;2022-12-18T02:28:25;1.60;99.90
65462;DHT22;53236;43.666;18.444;2022-12-18T02:30:54;1.60;99.90
65462;DHT22;53236;43.666;18.444;2022-12-18T02:33:24;1.50;99.90
65462;DHT22;53236;43.666;18.444;2022-12-18T02:35:53;1.50;99.90
65462;DHT22;53236;43.666;18.444;2022-12-18T02:38:19;1.60;99.90
65462;DHT22;53236;43.666;18.444;2022-12-18T02:40:46;1.60;99.90
65462;DHT22;53236;43.666;18.444;2022-12-18T02:43:14;1.40;99.90
65462;DHT22;53236;43.666;18.444;2022-12-18T02:45:52;1.30;99.90
65462;DHT22;53236;43.666;18.444;2022-12-18T02:48:22;1.20;99.90
65462;DHT22;53236;43.666;18.444;2022-12-18T02:51:02;1.40;99.90
65462;DHT22;53236;43.666;18.444;2022-12-18T02:53:55;1.50;99.90
65462;DHT22;53236;43.666;18.444;2022-12-18T02:56:32;1.40;99.90
65462;DHT22;53236;43.666;18.444;2022-12-18T02:59:17;1.50;99.90
65462;DHT22;53236;43.666;18.444;2022-12-18T03:04:25;1.50;99.90
65462;DHT22;53236;43.666;18.444;2022-12-18T03:06:55;1.50;99.90
65462;DHT22;53236;43.666;18.444;2022-12-18T03:09:34;1.60;99.90
65462;DHT22;53236;43.666;18.444;2022-12-18T03:12:07;1.50;99.90
65462;DHT22;53236;43.666;18.444;2022-12-18T03:15:18;1.50;99.90
65462;DHT22;53236;43.666;18.444;2022-12-18T03:17:51;1.50;99.90
65462;DHT22;53236;43.666;18.444;2022-12-18T03:20:20;1.50;99.90
65462;DHT22;53236;43.666;18.444;2022-12-18T03:22:51;1.40;99.90
65462;DHT22;53236;43.666;18.444;2022-12-18T03:25:19;1.40;99.90
65462;DHT22;53236;43.666;18.444;2022-12-18T03:27:49;1.30;99.90
65462;DHT22;53236;43.666;18.444;2022-12-18T03:30:18;1.30;99.90
65462;DHT22;53236;43.666;18.444;2022-12-18T03:32:52;1.40;99.90
65462;DHT22;53236;43.666;18.444;2022-12-18T03:35:30;1.30;99.90
65462;DHT22;53236;43.666;18.444;2022-12-18T03:37:57;1.30;99.90
65462;DHT22;53236;43.666;18.444;2022-12-18T03:40:31;1.30;99.90
65462;DHT22;53236;43.666;18.444;2022-12-18T03:43:16;1.30;99.90
65462;DHT22;53236;43.666;18.444;2022-12-18T03:45:51;1.30;99.90
65462;DHT22;53236;43.666;18.444;2022-12-18T03:48:30;1.20;99.90
65462;DHT22;53236;43.666;18.444;2022-12-18T03:51:02;1.30;99.90
65462;DHT22;53236;43.666;18.444;2022-12-18T03:56:11;1.20;99.90
65462;DHT22;53236;43.666;18.444;2022-12-18T03:58:40;1.20;99.90
65462;DHT22;53236;43.666;18.444;2022-12-18T04:01:08;1.20;99.90
65462;DHT22;53236;43.666;18.444;2022-12-18T04:03:36;1.10;99.90
65462;DHT22;53236;43.666;18.444;2022-12-18T04:06:03;1.10;99.90
65462;DHT22;53236;43.666;18.444;2022-12-18T04:08:30;1.00;99.90
65462;DHT22;53236;43.666;18.444;2022-12-18T04:10:56;1.00;99.90
65462;DHT22;53236;43.666;18.444;2022-12-18T04:13:31;0.90;99.90
65462;DHT22;53236;43.666;18.444;2022-12-18T04:15:57;0.90;99.90
65462;DHT22;53236;43.666;18.444;2022-12-18T04:18:23;0.90;99.90
65462;DHT22;53236;43.666;18.444;2022-12-18T04:20:49;1.00;99.90
65462;DHT22;53236;43.666;18.444;2022-12-18T04:23:14;0.90;99.90
65462;DHT22;53236;43.666;18.444;2022-12-18T04:25:40;0.90;99.90
65462;DHT22;53236;43.666;18.444;2022-12-18T04:28:06;0.90;99.90
65462;DHT22;53236;43.666;18.444;2022-12-18T04:30:31;1.00;99.90
65462;DHT22;53236;43.666;18.444;2022-12-18T04:32:57;1.00;99.90
65462;DHT22;53236;43.666;18.444;2022-12-18T04:35:23;1.10;99.90
65462;DHT22;53236;43.666;18.444;2022-12-18T04:37:48;1.10;99.90
65462;DHT22;53236;43.666;18.444;2022-12-18T04:40:14;1.00;99.90
65462;DHT22;53236;43.666;18.444;2022-12-18T04:42:40;1.00;99.90
65462;DHT22;53236;43.666;18.444;2022-12-18T04:45:06;1.10;99.90
65462;DHT22;53236;43.666;18.444;2022-12-18T04:47:32;1.10;99.90
65462;DHT22;53236;43.666;18.444;2022-12-18T04:49:58;1.00;99.90
65462;DHT22;53236;43.666;18.444;2022-12-18T04:52:24;1.10;99.90
65462;DHT22;53236;43.666;18.444;2022-12-18T04:54:49;1.10;99.90
65462;DHT22;53236;43.666;18.444;2022-12-18T04:57:16;1.00;99.90
65462;DHT22;53236;43.666;18.444;2022-12-18T04:59:43;1.10;99.90
65462;DHT22;53236;43.666;18.444;2022-12-18T05:02:09;1.10;99.90
65462;DHT22;53236;43.666;18.444;2022-12-18T05:04:35;1.10;99.90
65462;DHT22;53236;43.666;18.444;2022-12-18T05:07:01;1.10;99.90
65462;DHT22;53236;43.666;18.444;2022-12-18T05:09:26;1.00;99.90
65462;DHT22;53236;43.666;18.444;2022-12-18T05:11:52;1.00;99.90
65462;DHT22;53236;43.666;18.444;2022-12-18T05:14:19;1.10;99.90
65462;DHT22;53236;43.666;18.444;2022-12-18T05:16:44;1.20;99.90
65462;DHT22;53236;43.666;18.444;2022-12-18T05:19:10;1.00;99.90
65462;DHT22;53236;43.666;18.444;2022-12-18T05:21:36;1.00;99.90
65462;DHT22;53236;43.666;18.444;2022-12-18T05:24:01;1.00;99.90
65462;DHT22;53236;43.666;18.444;2022-12-18T05:26:27;1.10;99.90
65462;DHT22;53236;43.666;18.444;2022-12-18T05:28:53;1.00;99.90
65462;DHT22;53236;43.666;18.444;2022-12-18T05:31:18;1.00;99.90
65462;DHT22;53236;43.666;18.444;2022-12-18T05:33:44;1.10;99.90
65462;DHT22;53236;43.666;18.444;2022-12-18T05:36:09;1.10;99.90
65462;DHT22;53236;43.666;18.444;2022-12-18T05:38:37;1.20;99.90
65462;DHT22;53236;43.666;18.444;2022-12-18T05:41:04;1.20;99.90
65462;DHT22;53236;43.666;18.444;2022-12-18T05:43:30;1.30;99.90
65462;DHT22;53236;43.666;18.444;2022-12-18T05:45:56;1.40;99.90
65462;DHT22;53236;43.666;18.444;2022-12-18T05:48:23;1.40;99.90
65462;DHT22;53236;43.666;18.444;2022-12-18T05:50:49;1.30;99.90
65462;DHT22;53236;43.666;18.444;2022-12-18T05:53:18;1.20;99.90
65462;DHT22;53236;43.666;18.444;2022-12-18T05:55:45;1.10;99.90
65462;DHT22;53236;43.666;18.444;2022-12-18T05:58:11;1.20;99.90
65462;DHT22;53236;43.666;18.444;2022-12-18T06:00:39;1.10;99.90
65462;DHT22;53236;43.666;18.444;2022-12-18T06:03:09;1.20;99.90
65462;DHT22;53236;43.666;18.444;2022-12-18T06:05:40;1.30;99.90
65462;DHT22;53236;43.666;18.444;2022-12-18T06:08:06;1.30;99.90
65462;DHT22;53236;43.666;18.444;2022-12-18T06:10:32;1.30;99.90
65462;DHT22;53236;43.666;18.444;2022-12-18T06:12:58;1.30;99.90
65462;DHT22;53236;43.666;18.444;2022-12-18T06:15:24;1.30;99.90
65462;DHT22;53236;43.666;18.444;2022-12-18T06:17:50;1.30;99.90
65462;DHT22;53236;43.666;18.444;2022-12-18T06:20:16;1.30;99.90
65462;DHT22;53236;43.666;18.444;2022-12-18T06:22:41;1.10;99.90
65462;DHT22;53236;43.666;18.444;2022-12-18T06:25:07;1.10;99.90
65462;DHT22;53236;43.666;18.444;2022-12-18T06:27:33;1.10;99.90
65462;DHT22;53236;43.666;18.444;2022-12-18T06:29:59;1.10;99.90
65462;DHT22;53236;43.666;18.444;2022-12-18T06:32:26;1.10;99.90
65462;DHT22;53236;43.666;18.444;2022-12-18T06:34:52;1.10;99.90
65462;DHT22;53236;43.666;18.444;2022-12-18T06:37:19;1.10;99.90
65462;DHT22;53236;43.666;18.444;2022-12-18T06:39:44;1.10;99.90
65462;DHT22;53236;43.666;18.444;2022-12-18T06:42:10;1.10;99.90
65462;DHT22;53236;43.666;18.444;2022-12-18T06:44:35;1.10;99.90
65462;DHT22;53236;43.666;18.444;2022-12-18T06:47:01;1.10;99.90
65462;DHT22;53236;43.666;18.444;2022-12-18T06:49:27;1.10;99.90
65462;DHT22;53236;43.666;18.444;2022-12-18T06:51:53;1.10;99.90
65462;DHT22;53236;43.666;18.444;2022-12-18T06:54:18;1.00;99.90
65462;DHT22;53236;43.666;18.444;2022-12-18T06:56:47;1.00;99.90
65462;DHT22;53236;43.666;18.444;2022-12-18T06:59:13;0.90;99.90
65462;DHT22;53236;43.666;18.444;2022-12-18T07:01:40;1.00;99.90
65462;DHT22;53236;43.666;18.444;2022-12-18T07:04:05;1.10;99.90
65462;DHT22;53236;43.666;18.444;2022-12-18T07:06:31;1.10;99.90
65462;DHT22;53236;43.666;18.444;2022-12-18T07:08:57;1.00;99.90
65462;DHT22;53236;43.666;18.444;2022-12-18T07:11:22;1.00;99.90
65462;DHT22;53236;43.666;18.444;2022-12-18T07:13:48;1.00;99.90
65462;DHT22;53236;43.666;18.444;2022-12-18T07:16:16;1.00;99.90
65462;DHT22;53236;43.666;18.444;2022-12-18T07:18:42;1.00;99.90
65462;DHT22;53236;43.666;18.444;2022-12-18T07:21:11;1.00;99.90
65462;DHT22;53236;43.666;18.444;2022-12-18T07:23:37;1.00;99.90
65462;DHT22;53236;43.666;18.444;2022-12-18T07:26:08;1.10;99.90
65462;DHT22;53236;43.666;18.444;2022-12-18T07:28:35;1.00;99.90
65462;DHT22;53236;43.666;18.444;2022-12-18T07:31:06;1.10;99.90
65462;DHT22;53236;43.666;18.444;2022-12-18T07:33:33;1.10;99.90
65462;DHT22;53236;43.666;18.444;2022-12-18T07:36:02;1.20;99.90
65462;DHT22;53236;43.666;18.444;2022-12-18T07:38:29;1.20;99.90
65462;DHT22;53236;43.666;18.444;2022-12-18T07:41:03;1.10;99.90
65462;DHT22;53236;43.666;18.444;2022-12-18T07:43:29;1.10;99.90
65462;DHT22;53236;43.666;18.444;2022-12-18T07:45:55;1.10;99.90
65462;DHT22;53236;43.666;18.444;2022-12-18T07:48:20;1.10;99.90
65462;DHT22;53236;43.666;18.444;2022-12-18T07:50:46;1.20;99.90
65462;DHT22;53236;43.666;18.444;2022-12-18T07:53:12;1.20;99.90
65462;DHT22;53236;43.666;18.444;2022-12-18T07:55:37;1.30;99.90
65462;DHT22;53236;43.666;18.444;2022-12-18T07:58:04;1.40;99.90
65462;DHT22;53236;43.666;18.444;2022-12-18T08:00:30;1.30;99.90
65462;DHT22;53236;43.666;18.444;2022-12-18T08:02:56;1.30;99.90
65462;DHT22;53236;43.666;18.444;2022-12-18T08:05:22;1.20;99.90
65462;DHT22;53236;43.666;18.444;2022-12-18T08:07:48;1.30;99.90
65462;DHT22;53236;43.666;18.444;2022-12-18T08:10:14;1.30;99.90
65462;DHT22;53236;43.666;18.444;2022-12-18T08:12:39;1.30;99.90
65462;DHT22;53236;43.666;18.444;2022-12-18T08:15:05;1.40;99.90
65462;DHT22;53236;43.666;18.444;2022-12-18T08:17:31;1.30;99.90
65462;DHT22;53236;43.666;18.444;2022-12-18T08:19:57;1.40;99.90
65462;DHT22;53236;43.666;18.444;2022-12-18T08:22:23;1.40;99.90
65462;DHT22;53236;43.666;18.444;2022-12-18T08:24:48;1.40;99.90
65462;DHT22;53236;43.666;18.444;2022-12-18T08:27:14;1.30;99.90
65462;DHT22;53236;43.666;18.444;2022-12-18T08:29:40;1.30;99.90
65462;DHT22;53236;43.666;18.444;2022-12-18T08:32:05;1.30;99.90
65462;DHT22;53236;43.666;18.444;2022-12-18T08:34:31;1.20;99.90
65462;DHT22;53236;43.666;18.444;2022-12-18T08:36:57;1.30;99.90
65462;DHT22;53236;43.666;18.444;2022-12-18T08:39:23;1.30;99.90
65462;DHT22;53236;43.666;18.444;2022-12-18T08:41:48;1.30;99.90
65462;DHT22;53236;43.666;18.444;2022-12-18T08:44:34;1.40;99.90
65462;DHT22;53236;43.666;18.444;2022-12-18T08:47:03;1.40;99.90
65462;DHT22;53236;43.666;18.444;2022-12-18T08:49:28;1.40;99.90
65462;DHT22;53236;43.666;18.444;2022-12-18T08:51:55;1.30;99.90
65462;DHT22;53236;43.666;18.444;2022-12-18T08:54:22;1.50;99.90
65462;DHT22;53236;43.666;18.444;2022-12-18T08:56:48;1.50;99.90
65462;DHT22;53236;43.666;18.444;2022-12-18T08:59:15;1.60;99.90
65462;DHT22;53236;43.666;18.444;2022-12-18T09:01:41;1.60;99.90
65462;DHT22;53236;43.666;18.444;2022-12-18T09:04:08;1.50;99.90
65462;DHT22;53236;43.666;18.444;2022-12-18T09:06:34;1.50;99.90
65462;DHT22;53236;43.666;18.444;2022-12-18T09:09:00;1.50;99.90
65462;DHT22;53236;43.666;18.444;2022-12-18T09:11:27;1.60;99.90
65462;DHT22;53236;43.666;18.444;2022-12-18T09:13:54;1.60;99.90
65462;DHT22;53236;43.666;18.444;2022-12-18T09:16:21;1.60;99.90
65462;DHT22;53236;43.666;18.444;2022-12-18T09:18:47;1.70;99.90
65462;DHT22;53236;43.666;18.444;2022-12-18T09:21:15;1.70;99.90
65462;DHT22;53236;43.666;18.444;2022-12-18T09:23:41;1.80;99.90
65462;DHT22;53236;43.666;18.444;2022-12-18T09:26:07;1.80;99.90
65462;DHT22;53236;43.666;18.444;2022-12-18T09:28:33;1.80;99.90
65462;DHT22;53236;43.666;18.444;2022-12-18T09:30:59;1.80;99.90
65462;DHT22;53236;43.666;18.444;2022-12-18T09:33:28;1.90;99.90
65462;DHT22;53236;43.666;18.444;2022-12-18T09:35:54;1.90;99.90
65462;DHT22;53236;43.666;18.444;2022-12-18T09:38:20;1.90;99.90
65462;DHT22;53236;43.666;18.444;2022-12-18T09:43:41;1.90;99.90
65462;DHT22;53236;43.666;18.444;2022-12-18T09:46:11;2.00;99.90
65462;DHT22;53236;43.666;18.444;2022-12-18T09:48:44;2.00;99.90
65462;DHT22;53236;43.666;18.444;2022-12-18T09:53:57;2.10;99.90
65462;DHT22;53236;43.666;18.444;2022-12-18T09:56:27;2.10;99.90
65462;DHT22;53236;43.666;18.444;2022-12-18T09:59:01;2.10;99.90
65462;DHT22;53236;43.666;18.444;2022-12-18T10:01:28;2.00;99.90
65462;DHT22;53236;43.666;18.444;2022-12-18T10:03:55;2.10;99.90
65462;DHT22;53236;43.666;18.444;2022-12-18T10:14:17;2.30;99.90
65462;DHT22;53236;43.666;18.444;2022-12-18T10:24:57;2.40;99.90
65462;DHT22;53236;43.666;18.444;2022-12-18T10:27:26;2.40;99.90
65462;DHT22;53236;43.666;18.444;2022-12-18T10:29:52;2.50;99.90
65462;DHT22;53236;43.666;18.444;2022-12-18T10:32:22;2.60;99.90
65462;DHT22;53236;43.666;18.444;2022-12-18T10:34:49;2.60;99.90
65462;DHT22;53236;43.666;18.444;2022-12-18T10:37:17;2.60;99.90
65462;DHT22;53236;43.666;18.444;2022-12-18T10:39:44;2.60;99.90
65462;DHT22;53236;43.666;18.444;2022-12-18T10:42:17;2.60;99.90
65462;DHT22;53236;43.666;18.444;2022-12-18T10:44:43;2.70;99.90
65462;DHT22;53236;43.666;18.444;2022-12-18T10:47:14;2.80;99.90
65462;DHT22;53236;43.666;18.444;2022-12-18T10:49:52;2.80;99.90
65462;DHT22;53236;43.666;18.444;2022-12-18T10:52:25;2.80;99.90
65462;DHT22;53236;43.666;18.444;2022-12-18T10:54:55;2.70;99.90
65462;DHT22;53236;43.666;18.444;2022-12-18T10:57:37;2.80;99.90
65462;DHT22;53236;43.666;18.444;2022-12-18T11:00:27;2.90;99.90
65462;DHT22;53236;43.666;18.444;2022-12-18T11:02:53;3.10;99.90
65462;DHT22;53236;43.666;18.444;2022-12-18T11:07:53;3.30;99.90
65462;DHT22;53236;43.666;18.444;2022-12-18T11:10:28;3.20;99.90
65462;DHT22;53236;43.666;18.444;2022-12-18T11:12:56;3.20;99.90
65462;DHT22;53236;43.666;18.444;2022-12-18T11:15:26;3.20;99.90
65462;DHT22;53236;43.666;18.444;2022-12-18T11:17:53;3.30;99.90
65462;DHT22;53236;43.666;18.444;2022-12-18T11:20:30;3.40;99.90
65462;DHT22;53236;43.666;18.444;2022-12-18T11:23:02;3.30;99.90
65462;DHT22;53236;43.666;18.444;2022-12-18T11:25:29;3.20;99.90
65462;DHT22;53236;43.666;18.444;2022-12-18T11:28:00;3.20;99.90
65462;DHT22;53236;43.666;18.444;2022-12-18T11:30:32;3.30;99.90
65462;DHT22;53236;43.666;18.444;2022-12-18T11:33:03;3.20;99.90
65462;DHT22;53236;43.666;18.444;2022-12-18T11:35:55;3.20;99.90
65462;DHT22;53236;43.666;18.444;2022-12-18T11:41:42;3.20;99.90
65462;DHT22;53236;43.666;18.444;2022-12-18T11:44:55;3.20;99.90
65462;DHT22;53236;43.666;18.444;2022-12-18T11:50:17;3.40;99.90
65462;DHT22;53236;43.666;18.444;2022-12-18T11:52:43;3.40;99.90
65462;DHT22;53236;43.666;18.444;2022-12-18T11:55:13;3.20;99.90
65462;DHT22;53236;43.666;18.444;2022-12-18T12:00:24;3.00;99.90
65462;DHT22;53236;43.666;18.444;2022-12-18T12:09:04;3.00;99.90
65462;DHT22;53236;43.666;18.444;2022-12-18T12:28:25;3.90;99.90
65462;DHT22;53236;43.666;18.444;2022-12-18T12:31:07;4.00;99.90
65462;DHT22;53236;43.666;18.444;2022-12-18T12:39:00;4.10;99.90
65462;DHT22;53236;43.666;18.444;2022-12-18T12:41:31;4.30;99.90
65462;DHT22;53236;43.666;18.444;2022-12-18T12:44:27;4.30;99.90
65462;DHT22;53236;43.666;18.444;2022-12-18T12:46:59;4.30;99.90
65462;DHT22;53236;43.666;18.444;2022-12-18T12:49:29;4.00;99.90
65462;DHT22;53236;43.666;18.444;2022-12-18T12:52:05;3.90;99.90
65462;DHT22;53236;43.666;18.444;2022-12-18T12:54:32;3.90;99.90
65462;DHT22;53236;43.666;18.444;2022-12-18T13:08:02;4.00;99.90
65462;DHT22;53236;43.666;18.444;2022-12-18T13:10:37;4.10;99.90
65462;DHT22;53236;43.666;18.444;2022-12-18T13:13:09;4.30;99.90
65462;DHT22;53236;43.666;18.444;2022-12-18T13:15:48;4.40;99.90
65462;DHT22;53236;43.666;18.444;2022-12-18T13:18:22;4.30;99.90
65462;DHT22;53236;43.666;18.444;2022-12-18T13:31:14;4.00;99.90
65462;DHT22;53236;43.666;18.444;2022-12-18T13:33:44;4.00;99.90
65462;DHT22;53236;43.666;18.444;2022-12-18T13:41:40;4.20;99.90
65462;DHT22;53236;43.666;18.444;2022-12-18T13:44:31;4.10;99.90
65462;DHT22;53236;43.666;18.444;2022-12-18T13:46:58;3.90;99.90
65462;DHT22;53236;43.666;18.444;2022-12-18T13:51:52;4.00;99.90
65462;DHT22;53236;43.666;18.444;2022-12-18T13:56:48;4.00;99.90
65462;DHT22;53236;43.666;18.444;2022-12-18T13:59:20;3.80;99.90
65462;DHT22;53236;43.666;18.444;2022-12-18T14:06:53;3.50;99.90
65462;DHT22;53236;43.666;18.444;2022-12-18T14:09:25;3.40;99.90
65462;DHT22;53236;43.666;18.444;2022-12-18T14:11:51;3.20;99.90
65462;DHT22;53236;43.666;18.444;2022-12-18T14:14:18;3.50;99.90
65462;DHT22;53236;43.666;18.444;2022-12-18T14:16:46;3.40;99.90
65462;DHT22;53236;43.666;18.444;2022-12-18T14:19:14;3.50;99.90
65462;DHT22;53236;43.666;18.444;2022-12-18T14:21:46;3.40;99.90
65462;DHT22;53236;43.666;18.444;2022-12-18T14:24:15;3.40;99.90
65462;DHT22;53236;43.666;18.444;2022-12-18T14:26:42;3.70;99.90
65462;DHT22;53236;43.666;18.444;2022-12-18T14:29:26;3.40;99.90
65462;DHT22;53236;43.666;18.444;2022-12-18T14:32:15;3.50;99.90
65462;DHT22;53236;43.666;18.444;2022-12-18T14:34:50;3.70;99.90
65462;DHT22;53236;43.666;18.444;2022-12-18T14:37:26;3.70;99.90
65462;DHT22;53236;43.666;18.444;2022-12-18T14:39:57;3.70;99.90
65462;DHT22;53236;43.666;18.444;2022-12-18T14:42:24;3.90;99.90
65462;DHT22;53236;43.666;18.444;2022-12-18T14:47:58;3.50;99.90
65462;DHT22;53236;43.666;18.444;2022-12-18T14:50:23;3.60;99.90
65462;DHT22;53236;43.666;18.444;2022-12-18T14:52:49;3.80;99.90
65462;DHT22;53236;43.666;18.444;2022-12-18T14:55:17;3.70;99.90
65462;DHT22;53236;43.666;18.444;2022-12-18T14:57:43;3.80;99.90
65462;DHT22;53236;43.666;18.444;2022-12-18T15:00:18;3.40;99.90
65462;DHT22;53236;43.666;18.444;2022-12-18T15:02:53;3.20;99.90
65462;DHT22;53236;43.666;18.444;2022-12-18T15:05:25;3.10;99.90
65462;DHT22;53236;43.666;18.444;2022-12-18T15:07:52;3.00;99.90
65462;DHT22;53236;43.666;18.444;2022-12-18T15:10:22;2.90;99.90
65462;DHT22;53236;43.666;18.444;2022-12-18T15:13:05;2.90;99.90
65462;DHT22;53236;43.666;18.444;2022-12-18T15:23:36;3.70;99.90
65462;DHT22;53236;43.666;18.444;2022-12-18T15:26:04;3.70;99.90
65462;DHT22;53236;43.666;18.444;2022-12-18T15:28:45;3.70;99.90
65462;DHT22;53236;43.666;18.444;2022-12-18T15:33:42;3.80;99.90
65462;DHT22;53236;43.666;18.444;2022-12-18T15:36:14;3.90;99.90
65462;DHT22;53236;43.666;18.444;2022-12-18T15:38:41;3.90;99.90
65462;DHT22;53236;43.666;18.444;2022-12-18T15:41:18;4.00;99.90
65462;DHT22;53236;43.666;18.444;2022-12-18T15:43:45;4.00;99.90
65462;DHT22;53236;43.666;18.444;2022-12-18T15:46:13;3.50;99.90
65462;DHT22;53236;43.666;18.444;2022-12-18T15:48:42;3.70;99.90
65462;DHT22;53236;43.666;18.444;2022-12-18T15:51:22;4.00;99.90
65462;DHT22;53236;43.666;18.444;2022-12-18T15:53:50;4.20;99.90
65462;DHT22;53236;43.666;18.444;2022-12-18T15:56:17;4.20;99.90
65462;DHT22;53236;43.666;18.444;2022-12-18T15:59:02;4.10;99.90
65462;DHT22;53236;43.666;18.444;2022-12-18T16:01:29;4.20;99.90
65462;DHT22;53236;43.666;18.444;2022-12-18T16:03:55;4.20;99.90
65462;DHT22;53236;43.666;18.444;2022-12-18T16:06:22;4.20;99.90
65462;DHT22;53236;43.666;18.444;2022-12-18T16:08:48;4.20;99.90
65462;DHT22;53236;43.666;18.444;2022-12-18T16:14:24;4.20;99.90
65462;DHT22;53236;43.666;18.444;2022-12-18T16:16:55;4.20;99.90
65462;DHT22;53236;43.666;18.444;2022-12-18T16:19:22;4.20;99.90
65462;DHT22;53236;43.666;18.444;2022-12-18T16:21:49;3.90;99.90
65462;DHT22;53236;43.666;18.444;2022-12-18T16:24:26;3.80;99.90
65462;DHT22;53236;43.666;18.444;2022-12-18T16:26:53;3.80;99.90
65462;DHT22;53236;43.666;18.444;2022-12-18T16:29:20;3.50;99.90
65462;DHT22;53236;43.666;18.444;2022-12-18T16:31:50;3.70;99.90
65462;DHT22;53236;43.666;18.444;2022-12-18T16:36:51;3.70;99.90
65462;DHT22;53236;43.666;18.444;2022-12-18T16:39:19;3.70;99.90
65462;DHT22;53236;43.666;18.444;2022-12-18T16:41:45;3.60;99.90
65462;DHT22;53236;43.666;18.444;2022-12-18T16:44:11;3.40;99.90
65462;DHT22;53236;43.666;18.444;2022-12-18T16:46:38;3.30;99.90
65462;DHT22;53236;43.666;18.444;2022-12-18T16:49:04;3.60;99.90
65462;DHT22;53236;43.666;18.444;2022-12-18T16:51:30;3.50;99.90
65462;DHT22;53236;43.666;18.444;2022-12-18T16:53:56;3.70;99.90
65462;DHT22;53236;43.666;18.444;2022-12-18T16:56:22;3.90;99.90
65462;DHT22;53236;43.666;18.444;2022-12-18T16:58:56;3.90;99.90
65462;DHT22;53236;43.666;18.444;2022-12-18T17:01:23;3.90;99.90
65462;DHT22;53236;43.666;18.444;2022-12-18T17:06:23;3.50;99.90
65462;DHT22;53236;43.666;18.444;2022-12-18T17:08:55;3.60;99.90
65462;DHT22;53236;43.666;18.444;2022-12-18T17:11:22;3.80;99.90
65462;DHT22;53236;43.666;18.444;2022-12-18T17:13:48;3.70;99.90
65462;DHT22;53236;43.666;18.444;2022-12-18T17:16:13;3.60;99.90
65462;DHT22;53236;43.666;18.444;2022-12-18T17:18:39;3.40;99.90
65462;DHT22;53236;43.666;18.444;2022-12-18T17:21:05;3.20;99.90
65462;DHT22;53236;43.666;18.444;2022-12-18T17:23:34;3.20;99.90
65462;DHT22;53236;43.666;18.444;2022-12-18T17:26:00;3.60;99.90
65462;DHT22;53236;43.666;18.444;2022-12-18T17:28:27;3.70;99.90
65462;DHT22;53236;43.666;18.444;2022-12-18T17:30:53;3.80;99.90
65462;DHT22;53236;43.666;18.444;2022-12-18T17:33:19;3.50;99.90
65462;DHT22;53236;43.666;18.444;2022-12-18T17:35:45;3.30;99.90
65462;DHT22;53236;43.666;18.444;2022-12-18T17:38:11;3.20;99.90
65462;DHT22;53236;43.666;18.444;2022-12-18T17:40:37;3.30;99.90
65462;DHT22;53236;43.666;18.444;2022-12-18T17:43:08;3.20;99.90
65462;DHT22;53236;43.666;18.444;2022-12-18T17:45:36;3.10;99.90
65462;DHT22;53236;43.666;18.444;2022-12-18T17:48:03;2.90;99.90
65462;DHT22;53236;43.666;18.444;2022-12-18T17:50:28;2.90;99.90
65462;DHT22;53236;43.666;18.444;2022-12-18T17:52:55;2.70;99.90
65462;DHT22;53236;43.666;18.444;2022-12-18T17:55:21;2.70;99.90
65462;DHT22;53236;43.666;18.444;2022-12-18T17:57:47;2.50;99.90
65462;DHT22;53236;43.666;18.444;2022-12-18T18:00:13;2.50;99.90
65462;DHT22;53236;43.666;18.444;2022-12-18T18:02:39;2.60;99.90
65462;DHT22;53236;43.666;18.444;2022-12-18T18:05:05;2.60;99.90
65462;DHT22;53236;43.666;18.444;2022-12-18T18:07:31;2.60;99.90
65462;DHT22;53236;43.666;18.444;2022-12-18T18:09:56;2.50;99.90
65462;DHT22;53236;43.666;18.444;2022-12-18T18:12:22;2.50;99.90
65462;DHT22;53236;43.666;18.444;2022-12-18T18:15:07;2.60;99.90
65462;DHT22;53236;43.666;18.444;2022-12-18T18:17:33;2.50;99.90
65462;DHT22;53236;43.666;18.444;2022-12-18T18:19:59;2.50;99.90
65462;DHT22;53236;43.666;18.444;2022-12-18T18:22:25;2.50;99.90